sensor_id;sensor_type;location;lat;lon;timestamp;P1;durP1;ratioP1;P2;durP2;ratioP2
7179;SDS011;3631;42.152;24.756;2023-12-07T00:02:05;41.53;;;19.97;;
7179;SDS011;3631;42.152;24.756;2023-12-07T00:04:32;40.77;;;20.27;;
7179;SDS011;3631;42.152;24.756;2023-12-07T00:06:59;39.90;;;20.73;;
7179;SDS011;3631;42.152;24.756;2023-12-07T00:09:27;40.97;;;20.53;;
7179;SDS011;3631;42.152;24.756;2023-12-07T00:11:54;36.73;;;19.17;;
7179;SDS011;3631;42.152;24.756;2023-12-07T00:14:21;34.67;;;18.17;;
7179;SDS011;3631;42.152;24.756;2023-12-07T00:16:48;34.40;;;17.73;;
7179;SDS011;3631;42.152;24.756;2023-12-07T00:19:15;29.20;;;15.63;;
7179;SDS011;3631;42.152;24.756;2023-12-07T00:21:42;27.60;;;16.00;;
7179;SDS011;3631;42.152;24.756;2023-12-07T00:24:09;29.97;;;17.17;;
7179;SDS011;3631;42.152;24.756;2023-12-07T00:26:37;34.67;;;17.33;;
7179;SDS011;3631;42.152;24.756;2023-12-07T00:29:04;31.17;;;17.30;;
7179;SDS011;3631;42.152;24.756;2023-12-07T00:31:31;29.50;;;16.73;;
7179;SDS011;3631;42.152;24.756;2023-12-07T00:33:58;31.53;;;17.63;;
7179;SDS011;3631;42.152;24.756;2023-12-07T00:36:25;26.37;;;15.80;;
7179;SDS011;3631;42.152;24.756;2023-12-07T00:38:52;30.93;;;17.37;;
7179;SDS011;3631;42.152;24.756;2023-12-07T00:41:19;29.97;;;16.17;;
7179;SDS011;3631;42.152;24.756;2023-12-07T00:43:48;26.90;;;16.30;;
7179;SDS011;3631;42.152;24.756;2023-12-07T00:46:15;27.90;;;15.40;;
7179;SDS011;3631;42.152;24.756;2023-12-07T00:48:42;27.10;;;14.83;;
7179;SDS011;3631;42.152;24.756;2023-12-07T00:51:09;28.17;;;15.33;;
7179;SDS011;3631;42.152;24.756;2023-12-07T00:53:36;24.77;;;14.67;;
7179;SDS011;3631;42.152;24.756;2023-12-07T00:56:03;28.17;;;15.47;;
7179;SDS011;3631;42.152;24.756;2023-12-07T00:58:31;26.87;;;15.73;;
7179;SDS011;3631;42.152;24.756;2023-12-07T01:00:58;28.13;;;15.20;;
7179;SDS011;3631;42.152;24.756;2023-12-07T01:03:25;26.77;;;14.90;;
7179;SDS011;3631;42.152;24.756;2023-12-07T01:05:52;27.83;;;15.80;;
7179;SDS011;3631;42.152;24.756;2023-12-07T01:08:19;37.37;;;16.87;;
7179;SDS011;3631;42.152;24.756;2023-12-07T01:10:46;29.13;;;16.33;;
7179;SDS011;3631;42.152;24.756;2023-12-07T01:13:13;29.33;;;16.37;;
7179;SDS011;3631;42.152;24.756;2023-12-07T01:15:40;26.73;;;15.67;;
7179;SDS011;3631;42.152;24.756;2023-12-07T01:18:08;30.80;;;17.10;;
7179;SDS011;3631;42.152;24.756;2023-12-07T01:20:35;27.00;;;15.67;;
7179;SDS011;3631;42.152;24.756;2023-12-07T01:23:02;34.37;;;17.07;;
7179;SDS011;3631;42.152;24.756;2023-12-07T01:25:29;31.50;;;16.80;;
7179;SDS011;3631;42.152;24.756;2023-12-07T01:27:56;29.03;;;15.80;;
7179;SDS011;3631;42.152;24.756;2023-12-07T01:30:23;25.63;;;15.43;;
7179;SDS011;3631;42.152;24.756;2023-12-07T01:32:50;33.63;;;16.83;;
7179;SDS011;3631;42.152;24.756;2023-12-07T01:35:19;26.70;;;15.63;;
7179;SDS011;3631;42.152;24.756;2023-12-07T01:37:46;26.50;;;15.00;;
7179;SDS011;3631;42.152;24.756;2023-12-07T01:40:13;27.77;;;15.60;;
7179;SDS011;3631;42.152;24.756;2023-12-07T01:42:40;30.07;;;15.13;;
7179;SDS011;3631;42.152;24.756;2023-12-07T01:45:15;27.63;;;15.70;;
7179;SDS011;3631;42.152;24.756;2023-12-07T01:47:42;25.60;;;14.27;;
7179;SDS011;3631;42.152;24.756;2023-12-07T01:50:10;26.00;;;15.07;;
7179;SDS011;3631;42.152;24.756;2023-12-07T01:52:42;28.63;;;14.90;;
7179;SDS011;3631;42.152;24.756;2023-12-07T01:55:12;26.00;;;15.47;;
7179;SDS011;3631;42.152;24.756;2023-12-07T01:57:40;28.13;;;15.30;;
7179;SDS011;3631;42.152;24.756;2023-12-07T02:00:09;29.07;;;15.50;;
7179;SDS011;3631;42.152;24.756;2023-12-07T02:02:37;25.80;;;15.63;;
7179;SDS011;3631;42.152;24.756;2023-12-07T02:05:05;28.03;;;15.87;;
7179;SDS011;3631;42.152;24.756;2023-12-07T02:07:33;27.07;;;15.80;;
7179;SDS011;3631;42.152;24.756;2023-12-07T02:10:02;26.90;;;15.70;;
7179;SDS011;3631;42.152;24.756;2023-12-07T02:12:31;29.80;;;16.37;;
7179;SDS011;3631;42.152;24.756;2023-12-07T02:14:58;30.60;;;16.77;;
7179;SDS011;3631;42.152;24.756;2023-12-07T02:17:28;30.53;;;16.60;;
7179;SDS011;3631;42.152;24.756;2023-12-07T02:20:03;28.23;;;16.73;;
7179;SDS011;3631;42.152;24.756;2023-12-07T02:22:38;30.23;;;16.17;;
7179;SDS011;3631;42.152;24.756;2023-12-07T02:25:10;30.53;;;16.33;;
7179;SDS011;3631;42.152;24.756;2023-12-07T02:27:40;27.30;;;16.43;;
7179;SDS011;3631;42.152;24.756;2023-12-07T02:30:09;30.33;;;16.73;;
7179;SDS011;3631;42.152;24.756;2023-12-07T02:32:38;28.83;;;16.00;;
7179;SDS011;3631;42.152;24.756;2023-12-07T02:35:06;28.20;;;16.87;;
7179;SDS011;3631;42.152;24.756;2023-12-07T02:37:35;31.70;;;17.07;;
7179;SDS011;3631;42.152;24.756;2023-12-07T02:40:10;29.23;;;15.63;;
7179;SDS011;3631;42.152;24.756;2023-12-07T02:42:41;29.47;;;16.43;;
7179;SDS011;3631;42.152;24.756;2023-12-07T02:45:09;28.63;;;16.87;;
7179;SDS011;3631;42.152;24.756;2023-12-07T02:47:39;34.47;;;17.10;;
7179;SDS011;3631;42.152;24.756;2023-12-07T02:50:06;32.90;;;17.47;;
7179;SDS011;3631;42.152;24.756;2023-12-07T02:52:34;34.70;;;18.20;;
7179;SDS011;3631;42.152;24.756;2023-12-07T02:55:01;39.30;;;20.50;;
7179;SDS011;3631;42.152;24.756;2023-12-07T02:57:28;37.70;;;19.57;;
7179;SDS011;3631;42.152;24.756;2023-12-07T02:59:57;37.27;;;20.13;;
7179;SDS011;3631;42.152;24.756;2023-12-07T03:02:24;43.80;;;21.53;;
7179;SDS011;3631;42.152;24.756;2023-12-07T03:04:50;45.00;;;21.37;;
7179;SDS011;3631;42.152;24.756;2023-12-07T03:07:17;42.60;;;20.57;;
7179;SDS011;3631;42.152;24.756;2023-12-07T03:09:44;43.93;;;22.13;;
7179;SDS011;3631;42.152;24.756;2023-12-07T03:12:11;41.10;;;20.47;;
7179;SDS011;3631;42.152;24.756;2023-12-07T03:14:38;42.00;;;22.13;;
7179;SDS011;3631;42.152;24.756;2023-12-07T03:17:07;44.17;;;22.00;;
7179;SDS011;3631;42.152;24.756;2023-12-07T03:19:37;44.73;;;21.20;;
7179;SDS011;3631;42.152;24.756;2023-12-07T03:22:04;44.07;;;20.90;;
7179;SDS011;3631;42.152;24.756;2023-12-07T03:24:31;49.47;;;22.50;;
7179;SDS011;3631;42.152;24.756;2023-12-07T03:26:58;45.80;;;22.03;;
7179;SDS011;3631;42.152;24.756;2023-12-07T03:29:25;40.23;;;20.77;;
7179;SDS011;3631;42.152;24.756;2023-12-07T03:31:52;45.00;;;23.00;;
7179;SDS011;3631;42.152;24.756;2023-12-07T03:34:21;45.30;;;23.13;;
7179;SDS011;3631;42.152;24.756;2023-12-07T03:36:48;48.97;;;22.37;;
7179;SDS011;3631;42.152;24.756;2023-12-07T03:39:15;50.23;;;23.03;;
7179;SDS011;3631;42.152;24.756;2023-12-07T03:41:44;47.40;;;23.53;;
7179;SDS011;3631;42.152;24.756;2023-12-07T03:44:11;45.40;;;22.87;;
7179;SDS011;3631;42.152;24.756;2023-12-07T03:46:38;46.40;;;22.93;;
7179;SDS011;3631;42.152;24.756;2023-12-07T03:49:05;43.00;;;23.73;;
7179;SDS011;3631;42.152;24.756;2023-12-07T03:51:33;53.33;;;25.53;;
7179;SDS011;3631;42.152;24.756;2023-12-07T03:54:01;46.40;;;23.93;;
7179;SDS011;3631;42.152;24.756;2023-12-07T03:56:29;48.17;;;23.40;;
7179;SDS011;3631;42.152;24.756;2023-12-07T03:58:57;49.37;;;23.07;;
7179;SDS011;3631;42.152;24.756;2023-12-07T04:01:24;53.47;;;24.43;;
7179;SDS011;3631;42.152;24.756;2023-12-07T04:03:52;45.87;;;23.73;;
7179;SDS011;3631;42.152;24.756;2023-12-07T04:06:19;51.80;;;24.43;;
7179;SDS011;3631;42.152;24.756;2023-12-07T04:08:48;44.23;;;23.10;;
7179;SDS011;3631;42.152;24.756;2023-12-07T04:11:15;47.50;;;23.37;;
7179;SDS011;3631;42.152;24.756;2023-12-07T04:13:42;48.83;;;23.77;;
7179;SDS011;3631;42.152;24.756;2023-12-07T04:16:10;49.23;;;24.70;;
7179;SDS011;3631;42.152;24.756;2023-12-07T04:18:37;52.67;;;27.10;;
7179;SDS011;3631;42.152;24.756;2023-12-07T04:21:04;53.30;;;27.30;;
7179;SDS011;3631;42.152;24.756;2023-12-07T04:23:31;47.83;;;24.40;;
7179;SDS011;3631;42.152;24.756;2023-12-07T04:26:00;51.53;;;27.73;;
7179;SDS011;3631;42.152;24.756;2023-12-07T04:28:27;54.63;;;27.67;;
7179;SDS011;3631;42.152;24.756;2023-12-07T04:30:53;57.30;;;28.57;;
7179;SDS011;3631;42.152;24.756;2023-12-07T04:33:20;50.03;;;25.00;;
7179;SDS011;3631;42.152;24.756;2023-12-07T04:35:47;49.20;;;25.63;;
7179;SDS011;3631;42.152;24.756;2023-12-07T04:38:14;52.23;;;25.20;;
7179;SDS011;3631;42.152;24.756;2023-12-07T04:40:41;46.20;;;22.73;;
7179;SDS011;3631;42.152;24.756;2023-12-07T04:43:10;45.03;;;22.90;;
7179;SDS011;3631;42.152;24.756;2023-12-07T04:45:36;48.30;;;24.17;;
7179;SDS011;3631;42.152;24.756;2023-12-07T04:48:04;48.00;;;22.80;;
7179;SDS011;3631;42.152;24.756;2023-12-07T04:50:31;49.20;;;24.20;;
7179;SDS011;3631;42.152;24.756;2023-12-07T04:52:58;49.83;;;25.20;;
7179;SDS011;3631;42.152;24.756;2023-12-07T04:55:25;50.67;;;25.73;;
7179;SDS011;3631;42.152;24.756;2023-12-07T04:57:52;50.13;;;25.47;;
7179;SDS011;3631;42.152;24.756;2023-12-07T05:00:20;48.47;;;24.10;;
7179;SDS011;3631;42.152;24.756;2023-12-07T05:02:47;50.37;;;24.73;;
7179;SDS011;3631;42.152;24.756;2023-12-07T05:05:14;53.67;;;25.07;;
7179;SDS011;3631;42.152;24.756;2023-12-07T05:07:41;52.30;;;25.60;;
7179;SDS011;3631;42.152;24.756;2023-12-07T05:10:08;49.30;;;24.93;;
7179;SDS011;3631;42.152;24.756;2023-12-07T05:12:35;52.10;;;25.87;;
7179;SDS011;3631;42.152;24.756;2023-12-07T05:15:03;50.53;;;25.63;;
7179;SDS011;3631;42.152;24.756;2023-12-07T05:17:32;50.63;;;26.40;;
7179;SDS011;3631;42.152;24.756;2023-12-07T05:19:59;53.73;;;25.73;;
7179;SDS011;3631;42.152;24.756;2023-12-07T05:22:27;58.37;;;27.53;;
7179;SDS011;3631;42.152;24.756;2023-12-07T05:24:54;58.30;;;26.63;;
7179;SDS011;3631;42.152;24.756;2023-12-07T05:27:21;55.67;;;26.40;;
7179;SDS011;3631;42.152;24.756;2023-12-07T05:29:48;57.03;;;27.20;;
7179;SDS011;3631;42.152;24.756;2023-12-07T05:32:15;53.40;;;27.83;;
7179;SDS011;3631;42.152;24.756;2023-12-07T05:34:43;64.87;;;30.43;;
7179;SDS011;3631;42.152;24.756;2023-12-07T05:37:10;55.63;;;28.73;;
7179;SDS011;3631;42.152;24.756;2023-12-07T05:39:37;53.90;;;26.73;;
7179;SDS011;3631;42.152;24.756;2023-12-07T05:42:05;49.63;;;24.87;;
7179;SDS011;3631;42.152;24.756;2023-12-07T05:44:32;50.67;;;25.87;;
7179;SDS011;3631;42.152;24.756;2023-12-07T05:46:59;50.23;;;25.17;;
7179;SDS011;3631;42.152;24.756;2023-12-07T05:49:26;49.37;;;25.73;;
7179;SDS011;3631;42.152;24.756;2023-12-07T05:51:54;59.07;;;26.53;;
7179;SDS011;3631;42.152;24.756;2023-12-07T05:54:21;58.57;;;26.90;;
7179;SDS011;3631;42.152;24.756;2023-12-07T05:56:48;59.50;;;29.90;;
7179;SDS011;3631;42.152;24.756;2023-12-07T05:59:15;61.37;;;29.70;;
7179;SDS011;3631;42.152;24.756;2023-12-07T06:01:42;60.57;;;30.30;;
7179;SDS011;3631;42.152;24.756;2023-12-07T06:04:09;60.30;;;31.07;;
7179;SDS011;3631;42.152;24.756;2023-12-07T06:06:37;56.10;;;28.27;;
7179;SDS011;3631;42.152;24.756;2023-12-07T06:09:05;60.17;;;30.53;;
7179;SDS011;3631;42.152;24.756;2023-12-07T06:11:33;63.47;;;30.43;;
7179;SDS011;3631;42.152;24.756;2023-12-07T06:14:00;63.43;;;29.47;;
7179;SDS011;3631;42.152;24.756;2023-12-07T06:16:27;54.13;;;28.87;;
7179;SDS011;3631;42.152;24.756;2023-12-07T06:18:53;58.23;;;30.43;;
7179;SDS011;3631;42.152;24.756;2023-12-07T06:21:20;55.60;;;28.07;;
7179;SDS011;3631;42.152;24.756;2023-12-07T06:23:47;58.60;;;29.73;;
7179;SDS011;3631;42.152;24.756;2023-12-07T06:26:16;60.33;;;30.40;;
7179;SDS011;3631;42.152;24.756;2023-12-07T06:28:43;57.53;;;30.73;;
7179;SDS011;3631;42.152;24.756;2023-12-07T06:31:09;62.90;;;31.50;;
7179;SDS011;3631;42.152;24.756;2023-12-07T06:33:40;54.33;;;29.90;;
7179;SDS011;3631;42.152;24.756;2023-12-07T06:36:07;69.43;;;34.23;;
7179;SDS011;3631;42.152;24.756;2023-12-07T06:38:34;67.47;;;34.47;;
7179;SDS011;3631;42.152;24.756;2023-12-07T06:41:01;61.67;;;32.87;;
7179;SDS011;3631;42.152;24.756;2023-12-07T06:43:29;73.60;;;38.30;;
7179;SDS011;3631;42.152;24.756;2023-12-07T06:45:56;69.70;;;37.80;;
7179;SDS011;3631;42.152;24.756;2023-12-07T06:48:23;77.80;;;37.23;;
7179;SDS011;3631;42.152;24.756;2023-12-07T06:50:50;68.47;;;36.43;;
7179;SDS011;3631;42.152;24.756;2023-12-07T06:53:17;72.20;;;34.87;;
7179;SDS011;3631;42.152;24.756;2023-12-07T06:55:44;68.80;;;36.20;;
7179;SDS011;3631;42.152;24.756;2023-12-07T06:58:11;65.20;;;34.33;;
7179;SDS011;3631;42.152;24.756;2023-12-07T07:00:40;70.90;;;35.63;;
7179;SDS011;3631;42.152;24.756;2023-12-07T07:03:06;65.77;;;33.60;;
7179;SDS011;3631;42.152;24.756;2023-12-07T07:05:33;62.10;;;34.40;;
7179;SDS011;3631;42.152;24.756;2023-12-07T07:08:00;69.07;;;35.33;;
7179;SDS011;3631;42.152;24.756;2023-12-07T07:10:27;66.70;;;37.13;;
7179;SDS011;3631;42.152;24.756;2023-12-07T07:12:54;66.83;;;36.17;;
7179;SDS011;3631;42.152;24.756;2023-12-07T07:15:21;67.80;;;36.40;;
7179;SDS011;3631;42.152;24.756;2023-12-07T07:17:52;70.23;;;38.73;;
7179;SDS011;3631;42.152;24.756;2023-12-07T07:20:18;71.77;;;38.17;;
7179;SDS011;3631;42.152;24.756;2023-12-07T07:22:45;86.27;;;42.43;;
7179;SDS011;3631;42.152;24.756;2023-12-07T07:25:12;72.67;;;39.07;;
7179;SDS011;3631;42.152;24.756;2023-12-07T07:27:41;73.37;;;36.40;;
7179;SDS011;3631;42.152;24.756;2023-12-07T07:30:08;63.17;;;37.23;;
7179;SDS011;3631;42.152;24.756;2023-12-07T07:32:36;66.17;;;35.23;;
7179;SDS011;3631;42.152;24.756;2023-12-07T07:35:04;69.53;;;36.40;;
7179;SDS011;3631;42.152;24.756;2023-12-07T07:37:31;69.07;;;36.23;;
7179;SDS011;3631;42.152;24.756;2023-12-07T07:39:58;80.40;;;40.63;;
7179;SDS011;3631;42.152;24.756;2023-12-07T07:42:26;74.60;;;37.37;;
7179;SDS011;3631;42.152;24.756;2023-12-07T07:44:52;63.13;;;36.17;;
7179;SDS011;3631;42.152;24.756;2023-12-07T07:47:19;71.77;;;39.83;;
7179;SDS011;3631;42.152;24.756;2023-12-07T07:49:46;75.93;;;40.67;;
7179;SDS011;3631;42.152;24.756;2023-12-07T07:52:15;77.17;;;41.93;;
7179;SDS011;3631;42.152;24.756;2023-12-07T07:54:42;75.07;;;39.93;;
7179;SDS011;3631;42.152;24.756;2023-12-07T07:57:09;77.23;;;40.50;;
7179;SDS011;3631;42.152;24.756;2023-12-07T07:59:36;77.93;;;42.13;;
7179;SDS011;3631;42.152;24.756;2023-12-07T08:02:04;73.43;;;38.70;;
7179;SDS011;3631;42.152;24.756;2023-12-07T08:04:31;74.47;;;40.33;;
7179;SDS011;3631;42.152;24.756;2023-12-07T08:06:58;76.57;;;40.37;;
7179;SDS011;3631;42.152;24.756;2023-12-07T08:09:26;73.33;;;40.60;;
7179;SDS011;3631;42.152;24.756;2023-12-07T08:11:53;72.97;;;40.03;;
7179;SDS011;3631;42.152;24.756;2023-12-07T08:14:20;76.30;;;40.53;;
7179;SDS011;3631;42.152;24.756;2023-12-07T08:16:47;67.53;;;35.13;;
7179;SDS011;3631;42.152;24.756;2023-12-07T08:19:14;64.57;;;33.90;;
7179;SDS011;3631;42.152;24.756;2023-12-07T08:21:40;61.73;;;31.67;;
7179;SDS011;3631;42.152;24.756;2023-12-07T08:24:07;56.03;;;30.57;;
7179;SDS011;3631;42.152;24.756;2023-12-07T08:26:36;54.67;;;28.87;;
7179;SDS011;3631;42.152;24.756;2023-12-07T08:29:02;50.00;;;29.33;;
7179;SDS011;3631;42.152;24.756;2023-12-07T08:31:29;49.63;;;27.63;;
7179;SDS011;3631;42.152;24.756;2023-12-07T08:33:56;48.73;;;27.47;;
7179;SDS011;3631;42.152;24.756;2023-12-07T08:36:23;46.77;;;28.10;;
7179;SDS011;3631;42.152;24.756;2023-12-07T08:38:50;51.03;;;28.83;;
7179;SDS011;3631;42.152;24.756;2023-12-07T08:41:17;52.87;;;29.67;;
7179;SDS011;3631;42.152;24.756;2023-12-07T08:43:46;48.27;;;29.13;;
7179;SDS011;3631;42.152;24.756;2023-12-07T08:46:13;51.50;;;30.17;;
7179;SDS011;3631;42.152;24.756;2023-12-07T08:48:39;58.50;;;32.07;;
7179;SDS011;3631;42.152;24.756;2023-12-07T08:51:07;53.93;;;31.73;;
7179;SDS011;3631;42.152;24.756;2023-12-07T08:53:34;53.30;;;31.40;;
7179;SDS011;3631;42.152;24.756;2023-12-07T08:56:01;56.20;;;28.97;;
7179;SDS011;3631;42.152;24.756;2023-12-07T08:58:28;57.50;;;29.70;;
7179;SDS011;3631;42.152;24.756;2023-12-07T09:00:56;49.27;;;27.73;;
7179;SDS011;3631;42.152;24.756;2023-12-07T09:03:23;46.20;;;25.97;;
7179;SDS011;3631;42.152;24.756;2023-12-07T09:05:56;45.53;;;26.50;;
7179;SDS011;3631;42.152;24.756;2023-12-07T09:08:24;45.77;;;25.87;;
7179;SDS011;3631;42.152;24.756;2023-12-07T09:10:50;44.30;;;25.67;;
7179;SDS011;3631;42.152;24.756;2023-12-07T09:13:17;43.90;;;24.27;;
7179;SDS011;3631;42.152;24.756;2023-12-07T09:15:44;46.33;;;24.83;;
7179;SDS011;3631;42.152;24.756;2023-12-07T09:18:13;37.93;;;22.70;;
7179;SDS011;3631;42.152;24.756;2023-12-07T09:20:40;36.57;;;21.57;;
7179;SDS011;3631;42.152;24.756;2023-12-07T09:23:11;35.47;;;20.27;;
7179;SDS011;3631;42.152;24.756;2023-12-07T09:25:38;31.83;;;20.13;;
7179;SDS011;3631;42.152;24.756;2023-12-07T09:28:05;32.50;;;19.87;;
7179;SDS011;3631;42.152;24.756;2023-12-07T09:30:33;29.07;;;18.77;;
7179;SDS011;3631;42.152;24.756;2023-12-07T09:33:00;31.47;;;18.43;;
7179;SDS011;3631;42.152;24.756;2023-12-07T09:35:30;29.30;;;17.80;;
7179;SDS011;3631;42.152;24.756;2023-12-07T09:37:59;33.37;;;19.07;;
7179;SDS011;3631;42.152;24.756;2023-12-07T09:40:26;34.70;;;20.07;;
7179;SDS011;3631;42.152;24.756;2023-12-07T09:42:53;31.37;;;18.67;;
7179;SDS011;3631;42.152;24.756;2023-12-07T09:45:20;30.53;;;19.27;;
7179;SDS011;3631;42.152;24.756;2023-12-07T09:47:48;32.67;;;20.13;;
7179;SDS011;3631;42.152;24.756;2023-12-07T09:50:16;31.10;;;20.03;;
7179;SDS011;3631;42.152;24.756;2023-12-07T09:52:48;32.23;;;18.90;;
7179;SDS011;3631;42.152;24.756;2023-12-07T09:55:17;36.20;;;20.23;;
7179;SDS011;3631;42.152;24.756;2023-12-07T09:57:45;32.70;;;18.87;;
7179;SDS011;3631;42.152;24.756;2023-12-07T10:00:12;32.37;;;16.77;;
7179;SDS011;3631;42.152;24.756;2023-12-07T10:02:40;23.70;;;15.83;;
7179;SDS011;3631;42.152;24.756;2023-12-07T10:05:09;25.20;;;15.43;;
7179;SDS011;3631;42.152;24.756;2023-12-07T10:07:39;26.73;;;15.77;;
7179;SDS011;3631;42.152;24.756;2023-12-07T10:10:09;26.93;;;16.57;;
7179;SDS011;3631;42.152;24.756;2023-12-07T10:12:43;25.53;;;15.93;;
7179;SDS011;3631;42.152;24.756;2023-12-07T10:15:12;27.73;;;18.00;;
7179;SDS011;3631;42.152;24.756;2023-12-07T10:17:43;32.90;;;17.37;;
7179;SDS011;3631;42.152;24.756;2023-12-07T10:20:13;27.27;;;16.23;;
7179;SDS011;3631;42.152;24.756;2023-12-07T10:22:41;21.67;;;15.30;;
7179;SDS011;3631;42.152;24.756;2023-12-07T10:25:10;22.57;;;14.13;;
7179;SDS011;3631;42.152;24.756;2023-12-07T10:27:38;31.53;;;15.40;;
7179;SDS011;3631;42.152;24.756;2023-12-07T10:30:08;25.33;;;14.30;;
7179;SDS011;3631;42.152;24.756;2023-12-07T10:32:37;20.37;;;13.23;;
7179;SDS011;3631;42.152;24.756;2023-12-07T10:35:06;20.83;;;14.13;;
7179;SDS011;3631;42.152;24.756;2023-12-07T10:37:34;25.90;;;14.63;;
7179;SDS011;3631;42.152;24.756;2023-12-07T10:40:02;20.23;;;12.83;;
7179;SDS011;3631;42.152;24.756;2023-12-07T10:42:33;17.80;;;11.47;;
7179;SDS011;3631;42.152;24.756;2023-12-07T10:45:03;20.10;;;12.47;;
7179;SDS011;3631;42.152;24.756;2023-12-07T10:47:33;28.50;;;14.77;;
7179;SDS011;3631;42.152;24.756;2023-12-07T10:50:02;22.37;;;14.57;;
7179;SDS011;3631;42.152;24.756;2023-12-07T10:52:36;21.50;;;12.63;;
7179;SDS011;3631;42.152;24.756;2023-12-07T10:55:05;22.10;;;12.80;;
7179;SDS011;3631;42.152;24.756;2023-12-07T10:57:38;17.40;;;11.90;;
7179;SDS011;3631;42.152;24.756;2023-12-07T11:00:07;19.17;;;11.93;;
7179;SDS011;3631;42.152;24.756;2023-12-07T11:02:35;22.77;;;13.13;;
7179;SDS011;3631;42.152;24.756;2023-12-07T11:05:03;20.80;;;12.57;;
7179;SDS011;3631;42.152;24.756;2023-12-07T11:07:32;19.87;;;12.17;;
7179;SDS011;3631;42.152;24.756;2023-12-07T11:10:15;21.07;;;11.90;;
7179;SDS011;3631;42.152;24.756;2023-12-07T11:12:50;23.30;;;13.13;;
7179;SDS011;3631;42.152;24.756;2023-12-07T11:15:23;20.53;;;13.43;;
7179;SDS011;3631;42.152;24.756;2023-12-07T11:17:51;23.90;;;13.93;;
7179;SDS011;3631;42.152;24.756;2023-12-07T11:20:20;26.23;;;13.60;;
7179;SDS011;3631;42.152;24.756;2023-12-07T11:22:49;18.30;;;12.33;;
7179;SDS011;3631;42.152;24.756;2023-12-07T11:25:17;21.83;;;12.17;;
7179;SDS011;3631;42.152;24.756;2023-12-07T11:27:44;15.53;;;10.77;;
7179;SDS011;3631;42.152;24.756;2023-12-07T11:30:17;16.03;;;11.07;;
7179;SDS011;3631;42.152;24.756;2023-12-07T11:32:44;13.60;;;9.73;;
7179;SDS011;3631;42.152;24.756;2023-12-07T11:35:12;14.27;;;9.83;;
7179;SDS011;3631;42.152;24.756;2023-12-07T11:40:35;13.90;;;9.00;;
7179;SDS011;3631;42.152;24.756;2023-12-07T11:43:03;14.93;;;8.87;;
7179;SDS011;3631;42.152;24.756;2023-12-07T11:45:41;14.70;;;8.93;;
7179;SDS011;3631;42.152;24.756;2023-12-07T11:48:11;13.10;;;9.10;;
7179;SDS011;3631;42.152;24.756;2023-12-07T11:50:53;13.20;;;8.73;;
7179;SDS011;3631;42.152;24.756;2023-12-07T11:53:29;13.07;;;8.73;;
7179;SDS011;3631;42.152;24.756;2023-12-07T11:55:57;14.07;;;8.90;;
7179;SDS011;3631;42.152;24.756;2023-12-07T11:58:25;12.80;;;7.97;;
7179;SDS011;3631;42.152;24.756;2023-12-07T12:00:53;14.13;;;8.77;;
7179;SDS011;3631;42.152;24.756;2023-12-07T12:03:21;15.30;;;8.67;;
7179;SDS011;3631;42.152;24.756;2023-12-07T12:05:49;10.60;;;9.13;;
7179;SDS011;3631;42.152;24.756;2023-12-07T12:08:16;13.37;;;8.60;;
7179;SDS011;3631;42.152;24.756;2023-12-07T12:10:43;13.27;;;8.23;;
7179;SDS011;3631;42.152;24.756;2023-12-07T12:13:11;19.40;;;8.77;;
7179;SDS011;3631;42.152;24.756;2023-12-07T12:15:39;14.13;;;9.13;;
7179;SDS011;3631;42.152;24.756;2023-12-07T12:18:07;10.97;;;8.67;;
7179;SDS011;3631;42.152;24.756;2023-12-07T12:20:35;9.77;;;8.07;;
7179;SDS011;3631;42.152;24.756;2023-12-07T12:23:02;13.43;;;8.87;;
7179;SDS011;3631;42.152;24.756;2023-12-07T12:25:29;11.07;;;8.57;;
7179;SDS011;3631;42.152;24.756;2023-12-07T12:27:58;15.40;;;8.30;;
7179;SDS011;3631;42.152;24.756;2023-12-07T12:30:27;11.90;;;8.53;;
7179;SDS011;3631;42.152;24.756;2023-12-07T12:32:55;14.70;;;9.20;;
7179;SDS011;3631;42.152;24.756;2023-12-07T12:35:25;15.60;;;9.03;;
7179;SDS011;3631;42.152;24.756;2023-12-07T12:37:53;14.60;;;9.97;;
7179;SDS011;3631;42.152;24.756;2023-12-07T12:40:21;13.77;;;9.67;;
7179;SDS011;3631;42.152;24.756;2023-12-07T12:42:49;15.13;;;9.63;;
7179;SDS011;3631;42.152;24.756;2023-12-07T12:45:18;16.90;;;9.10;;
7179;SDS011;3631;42.152;24.756;2023-12-07T12:47:46;13.47;;;9.43;;
7179;SDS011;3631;42.152;24.756;2023-12-07T12:53:04;12.77;;;7.90;;
7179;SDS011;3631;42.152;24.756;2023-12-07T12:55:35;14.83;;;9.43;;
7179;SDS011;3631;42.152;24.756;2023-12-07T12:58:03;14.20;;;8.50;;
7179;SDS011;3631;42.152;24.756;2023-12-07T13:00:32;15.83;;;9.10;;
7179;SDS011;3631;42.152;24.756;2023-12-07T13:02:59;15.53;;;8.93;;
7179;SDS011;3631;42.152;24.756;2023-12-07T13:05:26;12.77;;;8.40;;
7179;SDS011;3631;42.152;24.756;2023-12-07T13:07:55;11.40;;;9.17;;
7179;SDS011;3631;42.152;24.756;2023-12-07T13:10:22;19.33;;;10.23;;
7179;SDS011;3631;42.152;24.756;2023-12-07T13:12:49;15.90;;;9.40;;
7179;SDS011;3631;42.152;24.756;2023-12-07T13:15:16;16.40;;;9.73;;
7179;SDS011;3631;42.152;24.756;2023-12-07T13:17:43;13.47;;;9.10;;
7179;SDS011;3631;42.152;24.756;2023-12-07T13:20:10;14.90;;;9.47;;
7179;SDS011;3631;42.152;24.756;2023-12-07T13:22:38;14.17;;;9.17;;
7179;SDS011;3631;42.152;24.756;2023-12-07T13:25:08;14.87;;;9.03;;
7179;SDS011;3631;42.152;24.756;2023-12-07T13:27:35;18.13;;;8.83;;
7179;SDS011;3631;42.152;24.756;2023-12-07T13:30:02;12.43;;;8.43;;
7179;SDS011;3631;42.152;24.756;2023-12-07T13:32:31;17.10;;;9.27;;
7179;SDS011;3631;42.152;24.756;2023-12-07T13:34:58;12.40;;;9.10;;
7179;SDS011;3631;42.152;24.756;2023-12-07T13:37:25;15.50;;;9.17;;
7179;SDS011;3631;42.152;24.756;2023-12-07T13:39:52;14.03;;;8.57;;
7179;SDS011;3631;42.152;24.756;2023-12-07T13:42:24;11.77;;;7.77;;
7179;SDS011;3631;42.152;24.756;2023-12-07T13:44:53;15.97;;;9.40;;
7179;SDS011;3631;42.152;24.756;2023-12-07T13:47:24;13.47;;;9.30;;
7179;SDS011;3631;42.152;24.756;2023-12-07T13:49:55;15.13;;;9.57;;
7179;SDS011;3631;42.152;24.756;2023-12-07T13:52:22;12.30;;;9.70;;
7179;SDS011;3631;42.152;24.756;2023-12-07T13:54:50;18.60;;;11.30;;
7179;SDS011;3631;42.152;24.756;2023-12-07T13:57:17;12.73;;;10.03;;
7179;SDS011;3631;42.152;24.756;2023-12-07T13:59:46;19.47;;;11.03;;
7179;SDS011;3631;42.152;24.756;2023-12-07T14:02:13;16.47;;;11.37;;
7179;SDS011;3631;42.152;24.756;2023-12-07T14:04:40;20.30;;;12.37;;
7179;SDS011;3631;42.152;24.756;2023-12-07T14:07:07;25.13;;;14.10;;
7179;SDS011;3631;42.152;24.756;2023-12-07T14:09:35;23.27;;;14.23;;
7179;SDS011;3631;42.152;24.756;2023-12-07T14:12:03;23.80;;;14.97;;
7179;SDS011;3631;42.152;24.756;2023-12-07T14:14:30;30.70;;;17.47;;
7179;SDS011;3631;42.152;24.756;2023-12-07T14:16:59;25.03;;;16.07;;
7179;SDS011;3631;42.152;24.756;2023-12-07T14:19:26;36.80;;;19.53;;
7179;SDS011;3631;42.152;24.756;2023-12-07T14:21:53;35.77;;;19.23;;
7179;SDS011;3631;42.152;24.756;2023-12-07T14:24:21;32.83;;;20.13;;
7179;SDS011;3631;42.152;24.756;2023-12-07T14:26:48;37.90;;;22.10;;
7179;SDS011;3631;42.152;24.756;2023-12-07T14:29:15;42.30;;;20.50;;
7179;SDS011;3631;42.152;24.756;2023-12-07T14:31:43;42.93;;;21.63;;
7179;SDS011;3631;42.152;24.756;2023-12-07T14:34:12;30.20;;;18.20;;
7179;SDS011;3631;42.152;24.756;2023-12-07T14:36:39;34.00;;;18.17;;
7179;SDS011;3631;42.152;24.756;2023-12-07T14:39:09;27.50;;;16.30;;
7179;SDS011;3631;42.152;24.756;2023-12-07T14:41:42;24.77;;;16.70;;
7179;SDS011;3631;42.152;24.756;2023-12-07T14:44:12;24.63;;;15.07;;
7179;SDS011;3631;42.152;24.756;2023-12-07T14:46:40;27.50;;;14.60;;